Time;durP1;ratioP1;P1;durP2;ratioP2;P2;SDS_P1;SDS_P2;PMS_P1;PMS_P2;Temp;Humidity;BMP_temperature;BMP_pressure;BME280_temperature;BME280_humidity;BME280_pressure;Samples;Min_cycle;Max_cycle;Signal;HPM_P1;HPM_P2
2023/07/10 00:01:31;;;;;;;30.92;19.23;;;18.20;99.90;;;;;;5080919;28;20052;-59
2023/07/10 00:03:56;;;;;;;32.60;18.95;;;18.20;99.90;;;;;;5081549;28;20048;-59
2023/07/10 00:06:22;;;;;;;29.95;18.75;;;18.30;99.90;;;;;;5080136;28;20053;-58
2023/07/10 00:08:48;;;;;;;28.30;19.60;;;18.20;99.90;;;;;;5081352;28;20072;-59
2023/07/10 00:11:30;;;;;;;27.15;19.52;;;18.30;99.90;;;;;;5079971;28;20048;-59
2023/07/10 00:13:56;;;;;;;36.45;19.92;;;18.30;99.90;;;;;;5080562;28;20572;-58
2023/07/10 00:16:23;;;;;;;25.27;18.85;;;18.40;99.90;;;;;;5080896;28;20059;-58
2023/07/10 00:18:50;;;;;;;30.65;20.42;;;18.30;99.90;;;;;;5080355;28;20062;-58
2023/07/10 00:21:17;;;;;;;29.42;18.15;;;18.20;99.90;;;;;;5081267;28;20048;-58
2023/07/10 00:23:43;;;;;;;35.85;19.90;;;18.20;99.90;;;;;;5079911;28;20051;-58
2023/07/10 00:26:26;;;;;;;35.28;20.35;;;18.10;99.90;;;;;;5081382;28;20037;-59
2023/07/10 00:28:57;;;;;;;35.55;22.70;;;18.00;99.90;;;;;;5079050;28;20070;-58
2023/07/10 00:31:24;;;;;;;35.22;21.58;;;18.00;99.90;;;;;;5080645;28;20040;-59
2023/07/10 00:33:51;;;;;;;39.30;23.33;;;18.00;99.90;;;;;;5081068;28;20055;-58
2023/07/10 00:36:33;;;;;;;31.45;22.50;;;18.00;99.90;;;;;;5080052;28;20070;-59
2023/07/10 00:39:11;;;;;;;40.28;23.92;;;18.00;99.90;;;;;;5081136;28;20041;-58
2023/07/10 00:41:39;;;;;;;38.55;25.77;;;18.00;99.90;;;;;;5079961;28;20100;-58
2023/07/10 00:44:06;;;;;;;45.90;27.23;;;18.00;99.90;;;;;;5080474;28;20869;-58
2023/07/10 00:46:41;;;;;;;43.78;27.92;;;18.00;99.90;;;;;;5080444;28;20098;-59
2023/07/10 00:49:15;;;;;;;47.78;28.77;;;18.10;99.90;;;;;;5079617;28;20055;-57
2023/07/10 00:51:52;;;;;;;47.45;28.83;;;18.00;99.90;;;;;;5080894;28;20508;-58
2023/07/10 00:54:31;;;;;;;45.35;27.08;;;18.00;99.90;;;;;;5079479;28;20090;-58
2023/07/10 00:56:59;;;;;;;36.97;26.90;;;18.10;99.90;;;;;;5079949;28;20454;-58
2023/07/10 00:59:27;;;;;;;40.00;26.05;;;18.10;99.90;;;;;;5080610;28;20044;-58
2023/07/10 01:02:17;;;;;;;38.95;26.73;;;18.10;99.90;;;;;;5079083;28;20037;-58
2023/07/10 01:04:47;;;;;;;37.47;24.10;;;18.10;99.90;;;;;;5080993;28;20045;-59
2023/07/10 01:07:16;;;;;;;35.35;24.92;;;18.10;99.90;;;;;;5079318;28;20041;-58
2023/07/10 01:09:46;;;;;;;34.85;25.27;;;18.10;99.90;;;;;;5080383;28;20040;-58
2023/07/10 01:12:12;;;;;;;32.90;22.98;;;18.00;99.90;;;;;;5080090;28;20051;-58
2023/07/10 01:14:38;;;;;;;29.42;21.75;;;18.10;99.90;;;;;;5079301;28;20040;-59
2023/07/10 01:17:06;;;;;;;35.90;22.90;;;18.10;99.90;;;;;;5080320;28;20055;-58
2023/07/10 01:19:35;;;;;;;33.45;23.13;;;18.10;99.90;;;;;;5079108;28;20330;-58
2023/07/10 01:22:02;;;;;;;29.67;23.27;;;18.10;99.90;;;;;;5080497;28;20045;-58
2023/07/10 01:24:28;;;;;;;29.70;21.17;;;18.20;99.90;;;;;;5073211;28;20079;-58
2023/07/10 01:26:56;;;;;;;33.75;23.30;;;18.20;99.90;;;;;;5066975;28;20041;-58
2023/07/10 01:29:23;;;;;;;33.78;22.63;;;18.30;99.90;;;;;;5067389;28;20052;-58
2023/07/10 01:31:52;;;;;;;30.00;21.10;;;18.40;99.90;;;;;;5059331;28;20036;-59
2023/07/10 01:34:20;;;;;;;29.30;20.10;;;18.20;99.90;;;;;;5060557;28;20060;-58
2023/07/10 01:36:48;;;;;;;30.38;20.48;;;18.20;99.90;;;;;;5058642;28;20370;-58
2023/07/10 01:39:13;;;;;;;29.35;21.23;;;18.20;99.90;;;;;;5058606;28;20508;-58
2023/07/10 01:41:46;;;;;;;31.85;21.45;;;18.00;99.90;;;;;;5059344;28;20037;-58
2023/07/10 01:44:23;;;;;;;32.35;22.60;;;17.80;99.90;;;;;;5059100;28;20501;-58
2023/07/10 01:46:49;;;;;;;27.85;20.98;;;17.80;99.90;;;;;;5059844;28;20072;-57
2023/07/10 01:49:17;;;;;;;35.97;24.30;;;17.80;99.90;;;;;;5058499;28;20083;-58
2023/07/10 01:51:44;;;;;;;35.05;23.60;;;17.80;99.90;;;;;;5060031;28;20049;-59
2023/07/10 01:54:15;;;;;;;33.88;25.58;;;17.80;99.90;;;;;;5069761;28;20110;-59
2023/07/10 01:56:41;;;;;;;34.13;24.83;;;17.70;99.90;;;;;;5079326;28;20044;-58
2023/07/10 01:59:07;;;;;;;34.55;25.33;;;17.70;99.90;;;;;;5079397;28;20040;-58
2023/07/10 02:01:33;;;;;;;40.75;27.67;;;17.70;99.90;;;;;;5078651;28;20042;-59
2023/07/10 02:03:59;;;;;;;38.42;25.60;;;17.70;99.90;;;;;;5079081;28;20064;-58
2023/07/10 02:06:26;;;;;;;34.35;25.48;;;17.70;99.90;;;;;;5078178;28;20055;-58
2023/07/10 02:08:52;;;;;;;34.35;25.38;;;17.80;99.90;;;;;;5079250;28;20099;-58
2023/07/10 02:11:18;;;;;;;35.33;25.58;;;17.80;99.90;;;;;;5078263;28;20530;-58
2023/07/10 02:13:44;;;;;;;37.83;25.02;;;17.70;99.90;;;;;;5079042;28;20086;-59
2023/07/10 02:16:12;;;;;;;32.15;23.30;;;17.60;99.90;;;;;;5078443;28;20128;-58
2023/07/10 02:18:38;;;;;;;30.48;22.48;;;17.60;99.90;;;;;;5078426;28;20049;-58
2023/07/10 02:21:04;;;;;;;27.63;21.63;;;17.60;99.90;;;;;;5079047;28;20078;-58
2023/07/10 02:23:30;;;;;;;29.40;22.27;;;17.80;99.90;;;;;;5077611;28;20044;-58
2023/07/10 02:25:56;;;;;;;30.05;21.83;;;17.70;99.90;;;;;;5079418;28;20040;-59
2023/07/10 02:28:22;;;;;;;29.50;23.42;;;17.60;99.90;;;;;;5077879;28;20048;-58
2023/07/10 02:30:48;;;;;;;31.90;22.95;;;17.60;99.90;;;;;;5078947;28;20040;-58
2023/07/10 02:33:14;;;;;;;29.80;22.77;;;17.60;99.90;;;;;;5078425;28;20041;-58
2023/07/10 02:35:40;;;;;;;31.50;21.30;;;17.70;99.90;;;;;;5078171;28;20386;-58
2023/07/10 02:38:07;;;;;;;28.42;20.77;;;17.70;99.90;;;;;;5076634;28;20074;-58
2023/07/10 02:40:33;;;;;;;24.63;19.92;;;17.70;99.90;;;;;;5076136;28;20095;-59
2023/07/10 02:42:58;;;;;;;26.58;20.25;;;17.70;99.90;;;;;;5078703;28;20041;-59
2023/07/10 02:45:24;;;;;;;22.80;16.30;;;17.80;99.90;;;;;;5077534;28;20056;-58
2023/07/10 02:47:50;;;;;;;29.20;20.63;;;17.70;99.90;;;;;;5078157;28;20044;-58
2023/07/10 02:50:16;;;;;;;27.33;18.00;;;17.70;99.90;;;;;;5078198;28;20044;-59
2023/07/10 02:52:42;;;;;;;24.40;19.58;;;17.70;99.90;;;;;;5077395;28;20574;-58
2023/07/10 02:55:08;;;;;;;23.40;19.13;;;17.60;99.90;;;;;;5078296;28;20040;-58
2023/07/10 02:57:33;;;;;;;21.63;16.52;;;17.50;99.90;;;;;;5077145;28;20047;-58
2023/07/10 02:59:59;;;;;;;20.80;16.17;;;17.50;99.90;;;;;;5078706;28;20455;-58
2023/07/10 03:02:25;;;;;;;19.80;15.55;;;17.40;99.90;;;;;;5077096;28;20036;-58
2023/07/10 03:04:50;;;;;;;17.42;14.30;;;17.50;99.90;;;;;;5077987;28;20083;-58
2023/07/10 03:07:16;;;;;;;22.80;14.98;;;17.50;99.90;;;;;;5077072;28;20071;-58
2023/07/10 03:09:42;;;;;;;17.80;14.90;;;17.40;99.90;;;;;;5077616;28;20041;-55
2023/07/10 03:12:08;;;;;;;20.50;14.65;;;17.40;99.90;;;;;;5076545;28;20047;-58
2023/07/10 03:14:34;;;;;;;18.98;13.75;;;17.40;99.90;;;;;;5076609;28;20702;-58
2023/07/10 03:17:00;;;;;;;22.55;14.70;;;17.50;99.90;;;;;;5077691;28;20056;-58
2023/07/10 03:19:31;;;;;;;20.48;14.32;;;17.60;99.90;;;;;;5076910;28;20041;-58
2023/07/10 03:21:57;;;;;;;22.15;15.25;;;17.70;99.90;;;;;;5078245;28;20060;-58
2023/07/10 03:24:23;;;;;;;17.83;14.52;;;17.70;99.90;;;;;;5076250;28;20032;-58
2023/07/10 03:26:48;;;;;;;19.75;15.23;;;17.50;99.90;;;;;;5077805;28;20036;-58
2023/07/10 03:29:15;;;;;;;20.80;15.40;;;17.60;99.90;;;;;;5078049;28;20047;-58
2023/07/10 03:31:42;;;;;;;19.23;15.23;;;17.70;99.90;;;;;;5077276;28;20051;-58
2023/07/10 03:34:11;;;;;;;19.88;13.73;;;17.70;99.90;;;;;;5078214;28;20036;-59
2023/07/10 03:36:37;;;;;;;19.52;15.60;;;17.70;99.90;;;;;;5076437;28;20068;-59
2023/07/10 03:39:03;;;;;;;18.90;15.07;;;17.80;99.90;;;;;;5078015;28;20075;-59
2023/07/10 03:41:28;;;;;;;19.27;14.70;;;17.80;99.90;;;;;;5077002;28;20072;-58
2023/07/10 03:43:55;;;;;;;21.30;14.95;;;17.90;99.90;;;;;;5077185;28;20045;-58
2023/07/10 03:46:21;;;;;;;20.17;15.18;;;17.80;99.90;;;;;;5076676;28;20063;-58
2023/07/10 03:48:47;;;;;;;17.35;14.25;;;17.90;99.90;;;;;;5076885;28;20123;-59
2023/07/10 03:51:14;;;;;;;20.15;14.50;;;17.90;99.90;;;;;;5077713;28;20538;-58
2023/07/10 03:53:40;;;;;;;17.48;13.73;;;17.90;99.90;;;;;;5076346;28;20515;-59
2023/07/10 03:56:06;;;;;;;14.57;11.32;;;17.70;99.90;;;;;;5077824;28;20072;-58
2023/07/10 03:58:34;;;;;;;17.05;12.32;;;17.80;99.90;;;;;;5074992;28;20036;-58
2023/07/10 04:01:01;;;;;;;16.05;11.57;;;17.80;99.90;;;;;;5077431;28;20119;-58
2023/07/10 04:03:29;;;;;;;17.70;12.48;;;17.80;99.90;;;;;;5077379;28;20104;-58
2023/07/10 04:05:58;;;;;;;15.93;11.88;;;17.80;99.90;;;;;;5076835;28;20524;-58
2023/07/10 04:08:29;;;;;;;18.42;12.00;;;17.80;99.90;;;;;;5077246;28;20056;-58
2023/07/10 04:10:57;;;;;;;16.33;11.45;;;17.80;99.90;;;;;;5076460;28;20145;-58
2023/07/10 04:13:23;;;;;;;14.13;10.40;;;17.80;99.90;;;;;;5077824;28;20051;-58
2023/07/10 04:16:05;;;;;;;12.10;8.95;;;17.70;99.90;;;;;;5076837;28;20064;-58
2023/07/10 04:18:32;;;;;;;;;;;17.70;99.90;;;;;;5077255;28;20107;-58
2023/07/10 04:20:59;;;;;;;13.68;7.43;;;17.80;99.90;;;;;;5077609;28;20425;-58
2023/07/10 04:23:25;;;;;;;12.60;7.80;;;17.80;99.90;;;;;;5076162;28;20092;-58
2023/07/10 04:25:51;;;;;;;13.63;7.60;;;17.70;99.90;;;;;;5077753;28;20075;-58
2023/07/10 04:28:16;;;;;;;10.98;7.45;;;17.80;99.90;;;;;;5076808;28;20056;-58
2023/07/10 04:30:44;;;;;;;10.50;7.32;;;17.60;99.90;;;;;;5081117;28;20127;-58
2023/07/10 04:33:11;;;;;;;10.35;7.13;;;17.70;99.90;;;;;;5080825;28;20048;-58
2023/07/10 04:35:39;;;;;;;12.23;6.90;;;17.70;99.90;;;;;;5080476;28;20053;-58
2023/07/10 04:38:05;;;;;;;10.45;6.40;;;17.80;99.90;;;;;;5080863;28;20447;-58
2023/07/10 04:40:30;;;;;;;11.50;7.10;;;17.90;99.90;;;;;;5079421;28;20040;-59
2023/07/10 04:42:56;;;;;;;11.98;5.93;;;18.00;99.90;;;;;;5080749;28;20123;-58
2023/07/10 04:45:22;;;;;;;10.13;5.72;;;17.90;99.90;;;;;;5079699;28;20051;-58
2023/07/10 04:47:48;;;;;;;14.15;5.70;;;18.00;99.90;;;;;;5081049;28;20046;-58
2023/07/10 04:50:14;;;;;;;9.18;6.00;;;17.90;99.90;;;;;;5080448;28;20048;-58
2023/07/10 04:52:40;;;;;;;12.27;6.30;;;18.00;99.90;;;;;;5080017;28;20070;-58
2023/07/10 04:55:05;;;;;;;9.55;5.75;;;18.00;99.90;;;;;;5080249;28;20041;-57
2023/07/10 04:57:31;;;;;;;10.07;5.68;;;18.00;99.90;;;;;;5079445;28;20622;-58
2023/07/10 04:59:57;;;;;;;10.45;6.55;;;18.00;99.90;;;;;;5080712;28;20219;-58
2023/07/10 05:02:23;;;;;;;9.00;5.68;;;18.00;99.90;;;;;;5079215;28;20117;-59
2023/07/10 05:04:48;;;;;;;10.88;6.30;;;18.10;99.90;;;;;;5080051;28;20105;-58
2023/07/10 05:07:14;;;;;;;10.00;6.20;;;18.10;99.90;;;;;;5079394;28;20058;-58
2023/07/10 05:09:40;;;;;;;10.63;6.53;;;18.10;99.90;;;;;;5080023;28;20072;-59
2023/07/10 05:12:06;;;;;;;11.93;6.32;;;18.10;99.90;;;;;;5080149;28;20051;-58
2023/07/10 05:14:32;;;;;;;11.88;6.78;;;18.10;99.90;;;;;;5078987;28;20479;-58
2023/07/10 05:16:57;;;;;;;11.73;6.63;;;18.10;99.90;;;;;;5080186;28;20033;-58
2023/07/10 05:19:23;;;;;;;10.82;7.40;;;18.20;99.90;;;;;;5078702;28;20083;-58
2023/07/10 05:21:49;;;;;;;12.45;6.75;;;18.20;99.90;;;;;;5080247;28;20049;-58
2023/07/10 05:24:15;;;;;;;10.13;6.30;;;18.20;99.90;;;;;;5079636;28;20068;-57
2023/07/10 05:26:40;;;;;;;10.45;6.18;;;18.10;99.90;;;;;;5079356;28;20040;-58
2023/07/10 05:29:06;;;;;;;12.50;5.97;;;18.10;99.90;;;;;;5079465;28;20041;-58
2023/07/10 05:31:32;;;;;;;11.65;5.78;;;18.10;99.90;;;;;;5079267;28;20036;-58
2023/07/10 05:33:58;;;;;;;9.35;5.88;;;18.20;99.90;;;;;;5078903;28;20100;-58
2023/07/10 05:36:23;;;;;;;10.95;6.28;;;18.10;99.90;;;;;;5078670;28;20083;-58
2023/07/10 05:38:49;;;;;;;9.30;5.60;;;18.10;99.90;;;;;;5078539;28;20056;-58
2023/07/10 05:41:16;;;;;;;9.55;5.78;;;18.20;99.90;;;;;;5072803;28;20041;-59
2023/07/10 05:43:42;;;;;;;12.38;5.45;;;18.10;99.90;;;;;;5059057;28;20120;-59
2023/07/10 05:46:07;;;;;;;10.13;5.38;;;18.20;99.90;;;;;;5059183;28;20045;-58
2023/07/10 05:48:33;;;;;;;11.82;5.60;;;18.20;99.90;;;;;;5058660;28;20091;-59
2023/07/10 05:50:59;;;;;;;10.35;5.85;;;18.10;99.90;;;;;;5059510;28;20033;-58
2023/07/10 05:53:26;;;;;;;9.60;5.22;;;18.10;99.90;;;;;;5060791;28;20054;-59
2023/07/10 05:55:56;;;;;;;10.23;5.28;;;18.10;99.90;;;;;;5075712;28;20115;-59
2023/07/10 05:58:24;;;;;;;12.55;4.82;;;18.10;99.90;;;;;;5074552;28;20041;-58
2023/07/10 06:00:53;;;;;;;8.40;5.10;;;18.10;99.90;;;;;;5075237;28;20492;-59
2023/07/10 06:03:19;;;;;;;8.50;4.57;;;18.20;99.90;;;;;;5075342;28;20050;-59
2023/07/10 06:06:03;;;;;;;9.10;4.35;;;18.10;99.90;;;;;;5074154;28;20080;-61
2023/07/10 06:08:30;;;;;;;8.35;4.43;;;18.10;99.90;;;;;;5075163;28;20036;-59
2023/07/10 06:10:56;;;;;;;8.85;5.28;;;18.10;99.90;;;;;;5073918;28;20076;-60
2023/07/10 06:13:22;;;;;;;9.75;4.80;;;18.20;99.90;;;;;;5073815;28;20098;-59
2023/07/10 06:15:51;;;;;;;9.82;4.60;;;18.30;99.90;;;;;;5074421;28;20056;-58
2023/07/10 06:18:18;;;;;;;11.50;4.82;;;18.30;99.90;;;;;;5074149;28;20060;-59
2023/07/10 06:20:49;;;;;;;9.10;4.30;;;18.40;99.90;;;;;;5075370;28;20048;-58
2023/07/10 06:23:15;;;;;;;12.82;5.32;;;18.50;99.90;;;;;;5073785;28;20059;-59
2023/07/10 06:25:46;;;;;;;9.35;4.40;;;18.60;99.90;;;;;;5075095;28;20048;-59
2023/07/10 06:28:12;;;;;;;;;;;18.60;99.90;;;;;;5074082;28;20279;-59
2023/07/10 06:30:42;;;;;;;11.65;4.85;;;18.90;99.90;;;;;;5074251;28;19924;-59
2023/07/10 06:33:08;;;;;;;8.43;4.20;;;18.60;99.90;;;;;;5074597;28;20531;-59
2023/07/10 06:35:34;;;;;;;13.43;5.18;;;18.80;99.90;;;;;;5061635;28;20041;-59
2023/07/10 06:38:00;;;;;;;10.35;4.85;;;19.00;99.90;;;;;;5063995;28;20078;-59
2023/07/10 06:40:26;;;;;;;10.63;4.35;;;19.10;99.90;;;;;;5053373;28;20169;-59
2023/07/10 06:42:51;;;;;;;10.38;4.45;;;18.90;99.90;;;;;;5054435;28;20052;-60
2023/07/10 06:45:17;;;;;;;9.32;4.35;;;19.20;99.90;;;;;;5053197;28;20060;-58
2023/07/10 06:47:45;;;;;;;10.00;4.03;;;19.20;99.90;;;;;;5060042;28;20052;-60
2023/07/10 06:50:13;;;;;;;9.40;4.00;;;19.30;99.90;;;;;;5062055;28;20040;-58
2023/07/10 06:52:41;;;;;;;10.20;4.05;;;19.20;99.90;;;;;;5073409;28;20108;-59
2023/07/10 06:55:10;;;;;;;12.05;4.53;;;19.50;99.90;;;;;;5073426;28;20052;-59
2023/07/10 06:57:35;;;;;;;8.90;3.58;;;19.30;99.90;;;;;;5073316;28;20131;-59
2023/07/10 07:00:02;;;;;;;9.82;3.22;;;19.50;99.90;;;;;;5074894;28;20048;-58
2023/07/10 07:02:28;;;;;;;8.77;3.45;;;19.60;99.90;;;;;;5071610;28;20150;-58
2023/07/10 07:04:54;;;;;;;8.65;4.22;;;19.70;99.90;;;;;;5073644;28;20045;-58
2023/07/10 07:07:19;;;;;;;7.00;2.80;;;19.50;99.90;;;;;;5071244;28;20041;-58
2023/07/10 07:09:45;;;;;;;9.63;2.63;;;19.50;99.90;;;;;;5064226;28;20126;-59
2023/07/10 07:12:12;;;;;;;11.73;3.25;;;19.70;99.90;;;;;;5063538;28;20040;-59
2023/07/10 07:14:37;;;;;;;12.20;3.58;;;19.90;99.90;;;;;;5057962;28;20060;-58
2023/07/10 07:17:05;;;;;;;11.15;3.70;;;19.70;99.90;;;;;;5062665;28;20040;-59
2023/07/10 07:19:31;;;;;;;8.80;2.92;;;19.60;99.90;;;;;;5067089;28;20362;-58
2023/07/10 07:21:58;;;;;;;8.32;3.55;;;19.80;99.90;;;;;;5054115;28;20059;-59
2023/07/10 07:24:24;;;;;;;12.43;3.50;;;20.00;99.90;;;;;;5054053;28;20334;-59
2023/07/10 07:26:50;;;;;;;11.10;3.13;;;19.90;99.90;;;;;;5053372;28;20045;-59
2023/07/10 07:29:15;;;;;;;9.75;2.90;;;20.00;99.90;;;;;;5053638;28;20048;-59
2023/07/10 07:31:41;;;;;;;11.35;3.00;;;20.10;99.90;;;;;;5051257;28;20041;-59
2023/07/10 07:34:07;;;;;;;11.00;3.40;;;20.10;99.90;;;;;;5060500;28;20041;-58
2023/07/10 07:36:34;;;;;;;9.57;2.97;;;20.00;99.90;;;;;;5064738;28;20065;-59
2023/07/10 07:39:04;;;;;;;9.70;3.10;;;20.10;99.90;;;;;;5053834;28;20481;-58
2023/07/10 07:41:32;;;;;;;8.85;3.30;;;20.00;99.90;;;;;;5055465;28;20052;-58
2023/07/10 07:43:58;;;;;;;11.02;3.42;;;20.10;99.90;;;;;;5062079;28;20052;-58
2023/07/10 07:46:25;;;;;;;9.70;3.30;;;20.10;99.90;;;;;;5057994;28;20053;-58
2023/07/10 07:48:50;;;;;;;9.55;2.95;;;20.10;99.90;;;;;;5053280;28;20075;-58
2023/07/10 07:51:16;;;;;;;13.55;4.32;;;20.20;99.90;;;;;;5052983;28;20135;-59
2023/07/10 07:53:42;;;;;;;9.43;3.35;;;20.00;99.90;;;;;;5059567;28;20120;-58
2023/07/10 07:56:09;;;;;;;9.98;3.28;;;20.20;99.90;;;;;;5072912;28;20059;-59
2023/07/10 07:58:35;;;;;;;7.07;2.47;;;20.40;99.90;;;;;;5073448;28;20067;-58
2023/07/10 08:01:01;;;;;;;11.75;3.30;;;20.60;99.90;;;;;;5073485;28;20048;-58
2023/07/10 08:03:27;;;;;;;7.65;3.00;;;20.50;99.90;;;;;;5074918;28;20103;-58
2023/07/10 08:05:53;;;;;;;13.43;3.60;;;20.50;99.90;;;;;;5061549;28;20045;-59
2023/07/10 08:08:19;;;;;;;11.20;3.45;;;20.40;99.90;;;;;;5057798;28;20142;-58
2023/07/10 08:10:47;;;;;;;11.02;3.42;;;20.30;99.90;;;;;;5056722;28;20094;-58
2023/07/10 08:13:14;;;;;;;7.97;2.65;;;20.50;99.90;;;;;;5060207;28;20045;-58
2023/07/10 08:15:41;;;;;;;10.82;3.30;;;20.90;99.90;;;;;;5060527;28;20053;-58
2023/07/10 08:18:07;;;;;;;10.35;3.08;;;21.00;99.90;;;;;;5061108;28;20047;-58
2023/07/10 08:20:33;;;;;;;8.05;2.50;;;20.80;99.90;;;;;;5061690;28;20114;-58
2023/07/10 08:22:59;;;;;;;9.65;2.78;;;21.10;99.90;;;;;;5062431;28;20504;-58
2023/07/10 08:25:25;;;;;;;6.10;2.20;;;21.10;99.90;;;;;;5071949;28;20048;-56
2023/07/10 08:27:51;;;;;;;12.80;3.47;;;21.20;99.90;;;;;;5065352;28;20045;-58
2023/07/10 08:30:17;;;;;;;11.65;2.80;;;21.20;99.90;;;;;;5065258;28;20052;-58
2023/07/10 08:32:43;;;;;;;9.40;2.75;;;21.40;99.90;;;;;;5063574;28;20549;-58
2023/07/10 08:35:09;;;;;;;12.25;4.15;;;21.60;99.90;;;;;;5068904;28;20053;-58
2023/07/10 08:37:38;;;;;;;10.27;3.38;;;21.50;99.90;;;;;;5063679;28;20559;-58
2023/07/10 08:40:12;;;;;;;8.77;2.63;;;21.70;99.90;;;;;;5067038;28;20041;-58
2023/07/10 08:42:39;;;;;;;8.73;3.00;;;21.80;99.90;;;;;;5060793;28;20049;-58
2023/07/10 08:45:11;;;;;;;11.10;3.03;;;21.60;99.90;;;;;;5059644;28;20040;-58
2023/07/10 08:47:42;;;;;;;9.82;2.72;;;22.00;99.90;;;;;;5060798;28;20068;-58
2023/07/10 08:50:18;;;;;;;12.00;2.90;;;21.70;99.90;;;;;;5060533;28;20093;-58
2023/07/10 08:53:09;;;;;;;8.70;2.58;;;21.60;99.90;;;;;;5059977;28;20322;-58
2023/07/10 08:56:00;;;;;;;10.57;2.87;;;21.80;99.90;;;;;;5064206;28;20057;-58
2023/07/10 08:58:30;;;;;;;9.40;2.47;;;21.90;99.90;;;;;;5066749;28;20536;-58
2023/07/10 09:01:15;;;;;;;10.73;1.95;;;22.00;99.90;;;;;;5067269;28;20040;-59
2023/07/10 09:03:51;;;;;;;8.45;2.50;;;22.20;99.90;;;;;;5066604;28;20049;-58
2023/07/10 09:06:28;;;;;;;9.95;3.08;;;22.10;99.90;;;;;;5059085;28;20532;-60
2023/07/10 09:08:55;;;;;;;10.85;2.70;;;22.40;99.90;;;;;;5060433;28;20064;-58
2023/07/10 09:11:23;;;;;;;9.43;2.40;;;22.30;99.90;;;;;;5060118;28;20055;-59
2023/07/10 09:14:51;;;;;;;9.63;2.60;;;22.00;99.90;;;;;;5058836;28;20088;-58
2023/07/10 09:17:22;;;;;;;13.32;2.55;;;22.40;99.90;;;;;;5037863;28;20045;-59
2023/07/10 09:19:53;;;;;;;10.83;2.63;;;22.60;99.90;;;;;;5055566;28;20069;-58
2023/07/10 09:22:19;;;;;;;9.63;3.05;;;22.60;99.90;;;;;;5058500;28;20284;-58
2023/07/10 09:24:45;;;;;;;11.15;2.53;;;22.60;99.90;;;;;;5060008;28;20096;-58
2023/07/10 09:27:12;;;;;;;9.45;2.55;;;22.30;99.90;;;;;;5059376;28;20083;-58
2023/07/10 09:29:39;;;;;;;9.18;2.47;;;22.40;99.90;;;;;;5059557;28;20110;-58
2023/07/10 09:32:16;;;;;;;10.70;2.60;;;22.60;99.90;;;;;;5057394;28;20057;-58
2023/07/10 09:34:50;;;;;;;9.93;2.60;;;22.80;99.90;;;;;;5059427;28;20056;-58
2023/07/10 09:37:19;;;;;;;9.73;2.60;;;22.90;99.90;;;;;;5065763;28;20041;-57
2023/07/10 09:39:45;;;;;;;10.95;2.83;;;22.90;99.90;;;;;;5069129;28;20440;-57
2023/07/10 09:42:15;;;;;;;9.82;2.90;;;22.70;99.90;;;;;;5060210;28;20041;-58
2023/07/10 09:44:51;;;;;;;12.38;3.00;;;22.70;99.90;;;;;;5066081;28;20088;-58
2023/07/10 09:47:17;;;;;;;9.50;3.15;;;22.30;99.90;;;;;;5064710;28;20059;-58
2023/07/10 09:49:56;;;;;;;10.73;2.85;;;22.50;99.90;;;;;;5074696;28;20052;-58
2023/07/10 09:52:38;;;;;;;9.50;2.88;;;22.90;99.90;;;;;;5067328;28;20471;-58
2023/07/10 09:55:07;;;;;;;;;;;22.90;99.90;;;;;;5076116;28;20045;-57
2023/07/10 09:57:33;;;;;;;13.30;3.00;;;22.90;99.90;;;;;;5075377;28;19924;-59
2023/07/10 10:00:00;;;;;;;9.18;2.70;;;22.70;99.90;;;;;;5079036;28;20036;-58
2023/07/10 10:02:33;;;;;;;10.70;2.92;;;22.50;99.90;;;;;;5077712;28;20121;-58
2023/07/10 10:05:08;;;;;;;12.35;3.08;;;22.30;99.90;;;;;;5076627;28;20052;-57
2023/07/10 10:07:45;;;;;;;12.18;3.38;;;21.90;99.90;;;;;;5076062;28;20056;-58
2023/07/10 10:10:27;;;;;;;12.63;2.65;;;21.80;99.90;;;;;;5078409;28;20048;-58
2023/07/10 10:13:05;;;;;;;13.40;3.28;;;22.20;99.90;;;;;;5079856;28;20415;-59
2023/07/10 10:15:45;;;;;;;11.30;3.50;;;22.10;99.90;;;;;;5078484;28;20090;-58
2023/07/10 10:18:44;;;;;;;11.23;3.33;;;22.40;99.90;;;;;;5077845;28;20044;-58
2023/07/10 10:21:16;;;;;;;12.52;3.00;;;22.50;99.90;;;;;;5060874;28;20129;-58
2023/07/10 10:23:44;;;;;;;13.00;2.88;;;22.80;99.90;;;;;;5058107;28;20219;-59
2023/07/10 10:26:31;;;;;;;15.00;3.78;;;22.30;99.90;;;;;;5063821;28;20041;-59
2023/07/10 10:29:17;;;;;;;11.02;3.08;;;22.30;99.90;;;;;;5062143;28;20037;-58
2023/07/10 10:31:52;;;;;;;12.18;3.00;;;22.50;99.90;;;;;;5057821;28;20053;-59
2023/07/10 10:34:41;;;;;;;13.02;3.20;;;22.70;99.90;;;;;;5064804;28;20040;-59
2023/07/10 10:37:33;;;;;;;11.48;2.63;;;23.10;99.90;;;;;;5066952;28;20055;-58
2023/07/10 10:40:15;;;;;;;11.38;2.55;;;22.80;99.90;;;;;;5076228;28;20060;-58
2023/07/10 10:43:39;;;;;;;9.20;2.67;;;22.90;99.90;;;;;;5078355;28;20036;-58
2023/07/10 10:46:32;;;;;;;10.60;2.70;;;23.30;99.90;;;;;;5034909;28;20068;-58
2023/07/10 10:49:10;;;;;;;10.63;2.65;;;23.30;99.90;;;;;;5072365;28;20045;-58
2023/07/10 10:51:42;;;;;;;8.80;2.50;;;23.00;99.90;;;;;;5078427;28;20059;-58
2023/07/10 10:54:15;;;;;;;;;;;23.00;99.90;;;;;;5077911;28;20045;-58
2023/07/10 10:56:56;;;;;;;9.30;2.35;;;23.50;99.90;;;;;;5077850;28;19920;-58
2023/07/10 10:59:27;;;;;;;9.65;2.05;;;22.90;98.20;;;;;;5077670;28;20056;-59
2023/07/10 11:02:01;;;;;;;;;;;23.20;96.50;;;;;;5075106;28;20515;-58
2023/07/10 11:04:42;;;;;;;8.48;2.53;;;23.10;96.00;;;;;;5076932;28;19924;-58
2023/07/10 11:07:11;;;;;;;10.55;2.67;;;23.30;99.90;;;;;;5074718;28;20342;-55
2023/07/10 11:09:58;;;;;;;9.15;2.42;;;23.20;99.30;;;;;;5076550;28;20045;-58
2023/07/10 11:12:28;;;;;;;8.70;2.45;;;23.50;96.40;;;;;;5075638;28;20104;-58
2023/07/10 11:14:59;;;;;;;9.60;2.30;;;23.80;95.30;;;;;;5075666;28;20801;-59
2023/07/10 11:17:25;;;;;;;9.30;2.33;;;23.80;91.40;;;;;;5068525;28;20044;-58
2023/07/10 11:19:52;;;;;;;8.07;2.03;;;23.40;90.40;;;;;;5077263;28;20039;-58
2023/07/10 11:22:22;;;;;;;9.52;2.13;;;23.60;94.30;;;;;;5077657;28;20064;-58
2023/07/10 11:24:49;;;;;;;10.57;2.42;;;23.90;95.20;;;;;;5077524;28;20098;-57
2023/07/10 11:27:34;;;;;;;9.80;2.10;;;23.80;93.90;;;;;;5076848;28;20033;-58
2023/07/10 11:30:13;;;;;;;9.70;2.10;;;23.60;92.40;;;;;;5077992;28;20044;-58
2023/07/10 11:32:57;;;;;;;9.02;2.03;;;23.30;87.40;;;;;;5071580;28;20077;-58
2023/07/10 11:35:24;;;;;;;9.75;3.33;;;23.50;84.40;;;;;;5066107;28;20049;-58
2023/07/10 11:37:49;;;;;;;9.05;2.17;;;23.10;98.10;;;;;;5062726;28;20084;-58
2023/07/10 11:40:27;;;;;;;11.85;1.98;;;22.60;99.90;;;;;;5065850;28;20037;-58
2023/07/10 11:43:25;;;;;;;10.13;2.70;;;22.50;99.90;;;;;;5063370;28;20044;-58
2023/07/10 11:46:17;;;;;;;9.98;2.97;;;22.20;99.90;;;;;;5071738;28;20044;-58
2023/07/10 11:48:58;;;;;;;12.85;2.60;;;22.20;99.90;;;;;;5061964;28;20044;-58
2023/07/10 11:51:30;;;;;;;9.13;2.30;;;22.20;99.90;;;;;;5077892;28;20049;-58
2023/07/10 11:54:04;;;;;;;7.57;1.77;;;22.40;99.90;;;;;;5076736;28;20492;-58
2023/07/10 11:56:32;;;;;;;8.63;1.90;;;22.10;99.90;;;;;;5077135;28;20297;-58
2023/07/10 11:58:58;;;;;;;8.65;2.20;;;21.90;99.90;;;;;;5075095;28;20040;-58
2023/07/10 12:01:26;;;;;;;11.10;2.30;;;22.20;99.50;;;;;;5067482;28;20647;-58
2023/07/10 12:03:55;;;;;;;8.50;2.40;;;22.20;99.90;;;;;;5057611;28;20045;-58
2023/07/10 12:06:23;;;;;;;9.30;1.90;;;22.10;99.90;;;;;;5056304;28;20056;-58
2023/07/10 12:08:50;;;;;;;9.23;3.30;;;22.30;99.90;;;;;;5057384;28;20116;-58
2023/07/10 12:11:35;;;;;;;5.90;1.70;;;22.20;99.90;;;;;;5056757;28;20057;-58
2023/07/10 12:14:05;;;;;;;11.32;2.17;;;22.00;99.90;;;;;;5056919;28;20047;-57
2023/07/10 12:16:48;;;;;;;6.93;1.88;;;21.90;99.90;;;;;;5065664;28;20144;-57
2023/07/10 12:19:19;;;;;;;8.10;1.70;;;22.00;99.90;;;;;;5065078;28;20096;-58
2023/07/10 12:21:45;;;;;;;7.55;2.20;;;21.90;99.90;;;;;;5057579;28;20053;-58
2023/07/10 12:24:16;;;;;;;9.75;2.42;;;22.00;99.90;;;;;;5056651;28;20044;-58
2023/07/10 12:26:41;;;;;;;7.17;1.87;;;22.40;99.90;;;;;;5055318;28;20094;-58
2023/07/10 12:29:12;;;;;;;8.18;2.10;;;22.80;99.90;;;;;;5056838;28;20682;-58
2023/07/10 12:31:39;;;;;;;8.20;1.73;;;23.10;97.60;;;;;;5056084;28;20076;-58
2023/07/10 12:34:07;;;;;;;8.55;1.55;;;23.40;93.20;;;;;;5039486;28;20428;-58
2023/07/10 12:36:38;;;;;;;8.50;1.73;;;23.30;91.90;;;;;;5064244;28;20056;-58
2023/07/10 12:39:07;;;;;;;13.05;2.35;;;23.50;87.20;;;;;;5066008;28;20064;-59
2023/07/10 12:41:37;;;;;;;11.00;1.98;;;23.50;89.80;;;;;;5071083;28;20100;-59
2023/07/10 12:44:05;;;;;;;7.00;1.50;;;23.50;88.10;;;;;;5063119;28;20104;-60
2023/07/10 12:46:31;;;;;;;7.22;1.48;;;23.30;89.60;;;;;;5077057;28;20427;-59
2023/07/10 12:49:01;;;;;;;7.15;1.55;;;23.50;88.60;;;;;;5068525;28;20051;-59
2023/07/10 12:51:33;;;;;;;6.68;1.67;;;23.10;86.90;;;;;;5075831;28;20044;-60